sensor_id;sensor_type;location;lat;lon;timestamp;temperature;humidity
2409;DHT22;8463;48.094;7.970;2023-05-01T06:39:48;14.40;28.90
2409;DHT22;8463;48.094;7.970;2023-05-01T06:42:21;14.40;23.60
2409;DHT22;8463;48.094;7.970;2023-05-01T06:44:46;14.20;20.60
2409;DHT22;8463;48.094;7.970;2023-05-01T06:47:15;14.00;20.80
2409;DHT22;8463;48.094;7.970;2023-05-01T06:49:41;13.80;24.20
2409;DHT22;8463;48.094;7.970;2023-05-01T06:52:08;13.50;25.80
2409;DHT22;8463;48.094;7.970;2023-05-01T06:54:33;14.90;29.30
2409;DHT22;8463;48.094;7.970;2023-05-01T06:57:05;13.20;29.80
2409;DHT22;8463;48.094;7.970;2023-05-01T06:59:30;13.10;30.10
2409;DHT22;8463;48.094;7.970;2023-05-01T07:01:56;12.90;35.80
2409;DHT22;8463;48.094;7.970;2023-05-01T07:04:21;12.90;36.50
2409;DHT22;8463;48.094;7.970;2023-05-01T07:06:49;12.90;36.80
2409;DHT22;8463;48.094;7.970;2023-05-01T07:09:14;12.90;38.40
2409;DHT22;8463;48.094;7.970;2023-05-01T07:11:40;12.90;40.00
2409;DHT22;8463;48.094;7.970;2023-05-01T07:14:07;12.90;41.20
2409;DHT22;8463;48.094;7.970;2023-05-01T07:16:33;12.90;42.30
2409;DHT22;8463;48.094;7.970;2023-05-01T07:18:59;12.90;42.50
2409;DHT22;8463;48.094;7.970;2023-05-01T07:21:24;13.10;43.00
2409;DHT22;8463;48.094;7.970;2023-05-01T07:23:50;13.10;43.30
2409;DHT22;8463;48.094;7.970;2023-05-01T07:26:16;13.20;43.60
2409;DHT22;8463;48.094;7.970;2023-05-01T07:28:44;13.20;43.90
2409;DHT22;8463;48.094;7.970;2023-05-01T07:31:10;13.30;44.20
2409;DHT22;8463;48.094;7.970;2023-05-01T07:33:36;13.30;44.40
2409;DHT22;8463;48.094;7.970;2023-05-01T07:36:01;13.30;43.80
2409;DHT22;8463;48.094;7.970;2023-05-01T07:38:29;13.30;44.50
2409;DHT22;8463;48.094;7.970;2023-05-01T07:41:02;13.20;44.00
2409;DHT22;8463;48.094;7.970;2023-05-01T07:43:30;13.20;45.90
2409;DHT22;8463;48.094;7.970;2023-05-01T07:45:57;13.20;45.90
2409;DHT22;8463;48.094;7.970;2023-05-01T07:51:09;13.40;45.60
2409;DHT22;8463;48.094;7.970;2023-05-01T07:53:35;13.50;44.90
2409;DHT22;8463;48.094;7.970;2023-05-01T07:56:08;13.40;43.60
2409;DHT22;8463;48.094;7.970;2023-05-01T07:58:36;13.30;45.60
2409;DHT22;8463;48.094;7.970;2023-05-01T08:01:02;13.40;46.10
2409;DHT22;8463;48.094;7.970;2023-05-01T08:03:29;13.40;46.10
2409;DHT22;8463;48.094;7.970;2023-05-01T08:05:56;13.50;46.10
2409;DHT22;8463;48.094;7.970;2023-05-01T08:08:22;13.60;45.60
2409;DHT22;8463;48.094;7.970;2023-05-01T08:10:51;13.70;46.40
2409;DHT22;8463;48.094;7.970;2023-05-01T08:13:17;13.70;46.10
2409;DHT22;8463;48.094;7.970;2023-05-01T08:15:45;13.70;46.40
2409;DHT22;8463;48.094;7.970;2023-05-01T08:18:17;13.80;45.70
2409;DHT22;8463;48.094;7.970;2023-05-01T08:20:50;13.80;45.10
2409;DHT22;8463;48.094;7.970;2023-05-01T08:23:16;13.80;45.60
2409;DHT22;8463;48.094;7.970;2023-05-01T08:25:41;13.80;45.60
2409;DHT22;8463;48.094;7.970;2023-05-01T08:28:08;13.90;45.20
2409;DHT22;8463;48.094;7.970;2023-05-01T08:30:48;14.00;44.50
2409;DHT22;8463;48.094;7.970;2023-05-01T08:33:16;14.10;43.60
2409;DHT22;8463;48.094;7.970;2023-05-01T08:35:42;14.10;42.30
2409;DHT22;8463;48.094;7.970;2023-05-01T08:38:07;14.10;42.60
2409;DHT22;8463;48.094;7.970;2023-05-01T08:40:36;14.20;41.50
2409;DHT22;8463;48.094;7.970;2023-05-01T08:43:07;14.30;40.60
2409;DHT22;8463;48.094;7.970;2023-05-01T08:45:35;14.40;40.50
2409;DHT22;8463;48.094;7.970;2023-05-01T08:48:05;14.40;39.70
2409;DHT22;8463;48.094;7.970;2023-05-01T08:50:35;14.50;39.40
2409;DHT22;8463;48.094;7.970;2023-05-01T08:53:06;14.50;38.00
2409;DHT22;8463;48.094;7.970;2023-05-01T08:55:34;14.60;37.90
2409;DHT22;8463;48.094;7.970;2023-05-01T08:58:08;14.60;35.60
2409;DHT22;8463;48.094;7.970;2023-05-01T09:00:34;14.40;34.90
2409;DHT22;8463;48.094;7.970;2023-05-01T09:03:19;14.00;38.60
2409;DHT22;8463;48.094;7.970;2023-05-01T09:05:45;14.10;40.50
2409;DHT22;8463;48.094;7.970;2023-05-01T09:08:11;14.30;41.20
2409;DHT22;8463;48.094;7.970;2023-05-01T09:10:47;14.20;39.60
2409;DHT22;8463;48.094;7.970;2023-05-01T09:13:16;14.10;40.10
2409;DHT22;8463;48.094;7.970;2023-05-01T09:15:42;14.20;39.90
2409;DHT22;8463;48.094;7.970;2023-05-01T09:18:09;14.10;39.10
2409;DHT22;8463;48.094;7.970;2023-05-01T09:20:36;14.30;40.10
2409;DHT22;8463;48.094;7.970;2023-05-01T09:23:10;14.30;39.70
2409;DHT22;8463;48.094;7.970;2023-05-01T09:25:36;14.30;41.00
2409;DHT22;8463;48.094;7.970;2023-05-01T09:28:06;14.40;41.50
2409;DHT22;8463;48.094;7.970;2023-05-01T09:30:34;14.50;39.50
2409;DHT22;8463;48.094;7.970;2023-05-01T09:33:16;14.70;40.20
2409;DHT22;8463;48.094;7.970;2023-05-01T09:35:54;15.00;40.40
2409;DHT22;8463;48.094;7.970;2023-05-01T09:38:22;15.10;34.60
2409;DHT22;8463;48.094;7.970;2023-05-01T09:40:52;15.20;31.00
2409;DHT22;8463;48.094;7.970;2023-05-01T09:43:25;15.40;34.80
2409;DHT22;8463;48.094;7.970;2023-05-01T09:46:08;15.70;31.70
2409;DHT22;8463;48.094;7.970;2023-05-01T09:48:37;15.70;21.80
2409;DHT22;8463;48.094;7.970;2023-05-01T09:51:25;15.70;20.90
2409;DHT22;8463;48.094;7.970;2023-05-01T09:53:56;15.60;16.80
2409;DHT22;8463;48.094;7.970;2023-05-01T09:56:31;15.50;18.10
2409;DHT22;8463;48.094;7.970;2023-05-01T09:58:58;15.60;19.20
2409;DHT22;8463;48.094;7.970;2023-05-01T10:01:44;15.70;20.50
2409;DHT22;8463;48.094;7.970;2023-05-01T10:04:11;15.70;21.30
2409;DHT22;8463;48.094;7.970;2023-05-01T10:06:38;15.50;9.70
2409;DHT22;8463;48.094;7.970;2023-05-01T10:09:05;15.40;12.40
2409;DHT22;8463;48.094;7.970;2023-05-01T10:11:51;15.50;15.50
2409;DHT22;8463;48.094;7.970;2023-05-01T10:14:19;15.60;12.30
2409;DHT22;8463;48.094;7.970;2023-05-01T10:16:46;15.80;10.80
2409;DHT22;8463;48.094;7.970;2023-05-01T10:19:15;15.80;10.80
2409;DHT22;8463;48.094;7.970;2023-05-01T10:21:41;15.90;12.40
2409;DHT22;8463;48.094;7.970;2023-05-01T10:24:16;15.90;10.80
2409;DHT22;8463;48.094;7.970;2023-05-01T10:26:42;16.20;12.50
2409;DHT22;8463;48.094;7.970;2023-05-01T10:29:08;16.50;10.40
2409;DHT22;8463;48.094;7.970;2023-05-01T10:31:35;16.60;7.80
2409;DHT22;8463;48.094;7.970;2023-05-01T10:34:02;16.70;5.10
2409;DHT22;8463;48.094;7.970;2023-05-01T10:36:37;16.80;4.00
2409;DHT22;8463;48.094;7.970;2023-05-01T10:39:04;17.10;4.90
2409;DHT22;8463;48.094;7.970;2023-05-01T10:42:00;17.30;3.10
2409;DHT22;8463;48.094;7.970;2023-05-01T10:44:28;17.60;4.60
2409;DHT22;8463;48.094;7.970;2023-05-01T10:46:55;17.40;1.00
2409;DHT22;8463;48.094;7.970;2023-05-01T10:49:21;17.30;1.00
2409;DHT22;8463;48.094;7.970;2023-05-01T10:52:07;17.30;1.00
2409;DHT22;8463;48.094;7.970;2023-05-01T10:54:33;17.20;1.00
2409;DHT22;8463;48.094;7.970;2023-05-01T10:57:00;17.00;1.00
2409;DHT22;8463;48.094;7.970;2023-05-01T11:02:31;16.90;1.00
2409;DHT22;8463;48.094;7.970;2023-05-01T11:04:59;17.10;1.00
2409;DHT22;8463;48.094;7.970;2023-05-01T11:07:25;17.10;1.00
2409;DHT22;8463;48.094;7.970;2023-05-01T11:09:53;17.30;1.00
2409;DHT22;8463;48.094;7.970;2023-05-01T11:15:31;17.50;1.00
2409;DHT22;8463;48.094;7.970;2023-05-01T11:18:01;17.80;1.00
2409;DHT22;8463;48.094;7.970;2023-05-01T11:22:56;18.00;1.00
2409;DHT22;8463;48.094;7.970;2023-05-01T11:25:25;18.30;1.00
2409;DHT22;8463;48.094;7.970;2023-05-01T11:27:59;17.80;1.00
2409;DHT22;8463;48.094;7.970;2023-05-01T11:30:35;17.90;1.00
2409;DHT22;8463;48.094;7.970;2023-05-01T11:33:03;18.30;1.00
2409;DHT22;8463;48.094;7.970;2023-05-01T11:35:31;18.30;1.00
2409;DHT22;8463;48.094;7.970;2023-05-01T11:37:57;18.10;1.00
2409;DHT22;8463;48.094;7.970;2023-05-01T11:40:56;18.10;1.00
2409;DHT22;8463;48.094;7.970;2023-05-01T11:43:22;18.10;1.00
2409;DHT22;8463;48.094;7.970;2023-05-01T11:45:51;18.10;1.00
2409;DHT22;8463;48.094;7.970;2023-05-01T11:48:19;18.20;1.00
2409;DHT22;8463;48.094;7.970;2023-05-01T11:50:45;18.10;1.00
2409;DHT22;8463;48.094;7.970;2023-05-01T11:53:13;18.30;1.00
2409;DHT22;8463;48.094;7.970;2023-05-01T11:55:40;18.20;1.00
2409;DHT22;8463;48.094;7.970;2023-05-01T11:58:12;18.40;1.00
2409;DHT22;8463;48.094;7.970;2023-05-01T12:00:42;18.20;1.00
2409;DHT22;8463;48.094;7.970;2023-05-01T12:03:12;18.00;1.00
2409;DHT22;8463;48.094;7.970;2023-05-01T12:05:42;18.10;1.00
2409;DHT22;8463;48.094;7.970;2023-05-01T12:08:13;18.30;1.00
2409;DHT22;8463;48.094;7.970;2023-05-01T12:10:53;18.30;1.00
2409;DHT22;8463;48.094;7.970;2023-05-01T12:13:20;18.40;1.00
2409;DHT22;8463;48.094;7.970;2023-05-01T12:15:49;18.60;1.00
2409;DHT22;8463;48.094;7.970;2023-05-01T12:18:20;18.90;1.00
2409;DHT22;8463;48.094;7.970;2023-05-01T12:20:48;18.90;1.00
2409;DHT22;8463;48.094;7.970;2023-05-01T12:23:19;19.00;1.00
2409;DHT22;8463;48.094;7.970;2023-05-01T12:25:45;18.50;1.00
2409;DHT22;8463;48.094;7.970;2023-05-01T12:28:17;18.30;1.00
2409;DHT22;8463;48.094;7.970;2023-05-01T12:30:47;18.20;1.00
2409;DHT22;8463;48.094;7.970;2023-05-01T12:33:15;18.30;1.00
2409;DHT22;8463;48.094;7.970;2023-05-01T12:35:44;18.10;1.00
2409;DHT22;8463;48.094;7.970;2023-05-01T12:38:21;17.80;1.00
2409;DHT22;8463;48.094;7.970;2023-05-01T12:40:58;17.80;1.00
2409;DHT22;8463;48.094;7.970;2023-05-01T12:43:32;17.60;1.00
2409;DHT22;8463;48.094;7.970;2023-05-01T12:46:12;17.60;1.00
2409;DHT22;8463;48.094;7.970;2023-05-01T12:48:41;17.70;1.00
2409;DHT22;8463;48.094;7.970;2023-05-01T12:51:07;17.70;1.00
2409;DHT22;8463;48.094;7.970;2023-05-01T12:53:33;17.60;1.00
2409;DHT22;8463;48.094;7.970;2023-05-01T12:55:58;17.50;1.00
2409;DHT22;8463;48.094;7.970;2023-05-01T12:58:39;17.30;1.00
2409;DHT22;8463;48.094;7.970;2023-05-01T13:01:07;17.20;1.00
2409;DHT22;8463;48.094;7.970;2023-05-01T13:03:33;17.20;1.00
2409;DHT22;8463;48.094;7.970;2023-05-01T13:06:02;17.20;1.00
2409;DHT22;8463;48.094;7.970;2023-05-01T13:08:32;16.80;1.00
2409;DHT22;8463;48.094;7.970;2023-05-01T13:11:00;16.40;1.00
2409;DHT22;8463;48.094;7.970;2023-05-01T13:13:29;16.20;1.00
2409;DHT22;8463;48.094;7.970;2023-05-01T13:16:09;16.10;1.00
2409;DHT22;8463;48.094;7.970;2023-05-01T13:18:47;16.00;5.00
2409;DHT22;8463;48.094;7.970;2023-05-01T13:21:23;15.80;1.70
2409;DHT22;8463;48.094;7.970;2023-05-01T13:28:55;15.80;11.50
2409;DHT22;8463;48.094;7.970;2023-05-01T13:31:21;15.90;10.90
2409;DHT22;8463;48.094;7.970;2023-05-01T13:33:51;16.00;8.60
2409;DHT22;8463;48.094;7.970;2023-05-01T13:36:16;16.10;7.60
2409;DHT22;8463;48.094;7.970;2023-05-01T13:38:45;16.10;4.80
2409;DHT22;8463;48.094;7.970;2023-05-01T13:41:20;16.10;5.40
2409;DHT22;8463;48.094;7.970;2023-05-01T13:43:49;16.10;7.30
2409;DHT22;8463;48.094;7.970;2023-05-01T13:46:18;16.10;6.30
2409;DHT22;8463;48.094;7.970;2023-05-01T13:48:44;16.00;6.90
2409;DHT22;8463;48.094;7.970;2023-05-01T13:51:12;15.90;8.50
2409;DHT22;8463;48.094;7.970;2023-05-01T13:53:41;15.80;11.10
2409;DHT22;8463;48.094;7.970;2023-05-01T13:56:08;15.90;13.60
2409;DHT22;8463;48.094;7.970;2023-05-01T13:58:41;15.90;12.80
2409;DHT22;8463;48.094;7.970;2023-05-01T14:01:17;16.00;11.20
2409;DHT22;8463;48.094;7.970;2023-05-01T14:03:47;16.00;12.50
2409;DHT22;8463;48.094;7.970;2023-05-01T14:06:15;15.90;12.40
2409;DHT22;8463;48.094;7.970;2023-05-01T14:08:42;15.90;12.90
2409;DHT22;8463;48.094;7.970;2023-05-01T14:11:09;15.90;11.20
2409;DHT22;8463;48.094;7.970;2023-05-01T14:13:39;16.00;9.80
2409;DHT22;8463;48.094;7.970;2023-05-01T14:16:11;16.10;12.60
2409;DHT22;8463;48.094;7.970;2023-05-01T14:18:45;16.10;11.60
2409;DHT22;8463;48.094;7.970;2023-05-01T14:21:15;16.20;12.20
2409;DHT22;8463;48.094;7.970;2023-05-01T14:23:44;16.50;10.90
2409;DHT22;8463;48.094;7.970;2023-05-01T14:26:15;16.50;11.30
2409;DHT22;8463;48.094;7.970;2023-05-01T14:28:46;16.80;13.00
2409;DHT22;8463;48.094;7.970;2023-05-01T14:31:27;17.10;7.00
2409;DHT22;8463;48.094;7.970;2023-05-01T14:33:58;17.10;6.90
2409;DHT22;8463;48.094;7.970;2023-05-01T14:36:30;17.10;8.00
2409;DHT22;8463;48.094;7.970;2023-05-01T14:38:58;17.00;8.60
2409;DHT22;8463;48.094;7.970;2023-05-01T14:41:26;17.00;9.30
2409;DHT22;8463;48.094;7.970;2023-05-01T14:43:58;17.10;7.70
2409;DHT22;8463;48.094;7.970;2023-05-01T14:46:32;17.20;7.40
2409;DHT22;8463;48.094;7.970;2023-05-01T14:48:59;17.50;7.10
2409;DHT22;8463;48.094;7.970;2023-05-01T14:51:25;17.60;4.30
2409;DHT22;8463;48.094;7.970;2023-05-01T14:53:51;17.50;3.80
2409;DHT22;8463;48.094;7.970;2023-05-01T14:56:17;17.40;3.80
2409;DHT22;8463;48.094;7.970;2023-05-01T14:58:43;17.20;3.70
2409;DHT22;8463;48.094;7.970;2023-05-01T15:01:09;16.90;5.90
2409;DHT22;8463;48.094;7.970;2023-05-01T15:03:37;16.80;5.40
2409;DHT22;8463;48.094;7.970;2023-05-01T15:06:06;16.70;6.40
2409;DHT22;8463;48.094;7.970;2023-05-01T15:08:33;16.60;6.60
2409;DHT22;8463;48.094;7.970;2023-05-01T15:10:58;16.50;5.70
2409;DHT22;8463;48.094;7.970;2023-05-01T15:13:24;16.40;6.40
2409;DHT22;8463;48.094;7.970;2023-05-01T15:15:50;16.40;7.20
2409;DHT22;8463;48.094;7.970;2023-05-01T15:18:23;16.40;7.90
2409;DHT22;8463;48.094;7.970;2023-05-01T15:20:48;16.40;12.70
2409;DHT22;8463;48.094;7.970;2023-05-01T15:23:14;16.30;17.50
2409;DHT22;8463;48.094;7.970;2023-05-01T15:25:40;16.20;19.60
2409;DHT22;8463;48.094;7.970;2023-05-01T15:28:08;16.00;20.00
2409;DHT22;8463;48.094;7.970;2023-05-01T15:30:34;15.90;24.10
2409;DHT22;8463;48.094;7.970;2023-05-01T15:32:59;15.70;26.30
2409;DHT22;8463;48.094;7.970;2023-05-01T15:35:25;15.50;25.40
2409;DHT22;8463;48.094;7.970;2023-05-01T15:37:54;15.50;28.00
2409;DHT22;8463;48.094;7.970;2023-05-01T15:40:20;15.50;28.30
2409;DHT22;8463;48.094;7.970;2023-05-01T15:42:46;15.50;28.20
2409;DHT22;8463;48.094;7.970;2023-05-01T15:45:17;15.50;23.40
2409;DHT22;8463;48.094;7.970;2023-05-01T15:47:44;15.30;22.10
2409;DHT22;8463;48.094;7.970;2023-05-01T15:50:09;15.30;22.10
2409;DHT22;8463;48.094;7.970;2023-05-01T15:52:42;15.50;27.30
2409;DHT22;8463;48.094;7.970;2023-05-01T15:55:07;15.50;27.50
2409;DHT22;8463;48.094;7.970;2023-05-01T15:57:33;15.00;25.80
2409;DHT22;8463;48.094;7.970;2023-05-01T16:00:00;14.50;31.00
2409;DHT22;8463;48.094;7.970;2023-05-01T16:02:34;14.50;32.10
2409;DHT22;8463;48.094;7.970;2023-05-01T16:05:05;14.50;34.80
2409;DHT22;8463;48.094;7.970;2023-05-01T16:07:32;14.70;30.80
2409;DHT22;8463;48.094;7.970;2023-05-01T16:09:58;14.70;29.10
2409;DHT22;8463;48.094;7.970;2023-05-01T16:12:29;14.80;29.20
2409;DHT22;8463;48.094;7.970;2023-05-01T16:14:55;15.10;29.20
2409;DHT22;8463;48.094;7.970;2023-05-01T16:17:20;15.30;25.90
2409;DHT22;8463;48.094;7.970;2023-05-01T16:19:47;15.30;25.40
2409;DHT22;8463;48.094;7.970;2023-05-01T16:22:17;15.60;30.30
2409;DHT22;8463;48.094;7.970;2023-05-01T16:24:43;15.80;22.40
2409;DHT22;8463;48.094;7.970;2023-05-01T16:27:12;15.80;23.10
2409;DHT22;8463;48.094;7.970;2023-05-01T16:29:40;15.60;27.00
2409;DHT22;8463;48.094;7.970;2023-05-01T16:32:07;15.70;29.00
2409;DHT22;8463;48.094;7.970;2023-05-01T16:34:42;15.80;29.70
2409;DHT22;8463;48.094;7.970;2023-05-01T16:37:08;15.70;28.30
2409;DHT22;8463;48.094;7.970;2023-05-01T16:39:35;15.80;30.90
2409;DHT22;8463;48.094;7.970;2023-05-01T16:42:11;15.90;26.80
2409;DHT22;8463;48.094;7.970;2023-05-01T16:44:42;15.80;27.20
2409;DHT22;8463;48.094;7.970;2023-05-01T16:47:10;16.00;26.70
2409;DHT22;8463;48.094;7.970;2023-05-01T16:49:42;16.10;27.70
2409;DHT22;8463;48.094;7.970;2023-05-01T16:52:08;16.30;25.50
2409;DHT22;8463;48.094;7.970;2023-05-01T16:54:38;16.30;20.20
2409;DHT22;8463;48.094;7.970;2023-05-01T16:57:04;16.30;20.20
2409;DHT22;8463;48.094;7.970;2023-05-01T16:59:30;16.40;22.40
2409;DHT22;8463;48.094;7.970;2023-05-01T17:01:58;16.30;20.20
2409;DHT22;8463;48.094;7.970;2023-05-01T17:04:23;16.40;20.90
2409;DHT22;8463;48.094;7.970;2023-05-01T17:06:51;16.40;20.10
2409;DHT22;8463;48.094;7.970;2023-05-01T17:09:16;16.40;21.10
2409;DHT22;8463;48.094;7.970;2023-05-01T17:11:42;16.40;21.10
2409;DHT22;8463;48.094;7.970;2023-05-01T17:14:08;16.50;21.30
2409;DHT22;8463;48.094;7.970;2023-05-01T17:16:34;16.50;21.00
2409;DHT22;8463;48.094;7.970;2023-05-01T17:18:59;16.40;21.60
2409;DHT22;8463;48.094;7.970;2023-05-01T17:21:28;16.20;24.20
2409;DHT22;8463;48.094;7.970;2023-05-01T17:23:55;15.90;30.60
2409;DHT22;8463;48.094;7.970;2023-05-01T17:26:20;15.50;35.70
2409;DHT22;8463;48.094;7.970;2023-05-01T17:28:47;15.30;41.30
2409;DHT22;8463;48.094;7.970;2023-05-01T17:31:17;15.20;44.10
2409;DHT22;8463;48.094;7.970;2023-05-01T17:33:44;15.10;45.40
2409;DHT22;8463;48.094;7.970;2023-05-01T17:36:12;14.90;38.40
2409;DHT22;8463;48.094;7.970;2023-05-01T17:38:38;14.70;39.10
2409;DHT22;8463;48.094;7.970;2023-05-01T17:41:06;14.40;37.90
2409;DHT22;8463;48.094;7.970;2023-05-01T17:45:57;14.20;35.70
2409;DHT22;8463;48.094;7.970;2023-05-01T17:48:23;14.20;36.30
2409;DHT22;8463;48.094;7.970;2023-05-01T17:50:49;14.20;34.60
2409;DHT22;8463;48.094;7.970;2023-05-01T17:53:14;13.90;40.10
2409;DHT22;8463;48.094;7.970;2023-05-01T17:55:40;13.90;40.80
2409;DHT22;8463;48.094;7.970;2023-05-01T17:58:06;13.80;40.60
2409;DHT22;8463;48.094;7.970;2023-05-01T18:00:31;13.80;41.20
2409;DHT22;8463;48.094;7.970;2023-05-01T18:03:03;13.90;44.30
2409;DHT22;8463;48.094;7.970;2023-05-01T18:05:30;13.80;47.00
2409;DHT22;8463;48.094;7.970;2023-05-01T18:07:57;13.80;49.80
2409;DHT22;8463;48.094;7.970;2023-05-01T18:10:23;13.80;50.60
2409;DHT22;8463;48.094;7.970;2023-05-01T18:12:54;13.80;49.10
2409;DHT22;8463;48.094;7.970;2023-05-01T18:15:20;13.80;48.90
2409;DHT22;8463;48.094;7.970;2023-05-01T18:17:46;13.70;50.30
2409;DHT22;8463;48.094;7.970;2023-05-01T18:20:11;13.60;48.90
2409;DHT22;8463;48.094;7.970;2023-05-01T18:22:37;13.60;49.40
2409;DHT22;8463;48.094;7.970;2023-05-01T18:25:05;13.60;51.20
2409;DHT22;8463;48.094;7.970;2023-05-01T18:27:31;13.50;51.70
2409;DHT22;8463;48.094;7.970;2023-05-01T18:29:56;13.60;52.50
2409;DHT22;8463;48.094;7.970;2023-05-01T18:32:24;13.50;51.60
2409;DHT22;8463;48.094;7.970;2023-05-01T18:34:49;13.60;52.80
2409;DHT22;8463;48.094;7.970;2023-05-01T18:37:16;13.60;52.80
2409;DHT22;8463;48.094;7.970;2023-05-01T18:39:44;13.70;52.20
2409;DHT22;8463;48.094;7.970;2023-05-01T18:42:09;13.80;51.50
2409;DHT22;8463;48.094;7.970;2023-05-01T18:44:35;13.80;50.40
2409;DHT22;8463;48.094;7.970;2023-05-01T18:47:03;13.90;51.40
2409;DHT22;8463;48.094;7.970;2023-05-01T18:49:29;13.90;51.10
2409;DHT22;8463;48.094;7.970;2023-05-01T18:51:54;14.00;52.50
2409;DHT22;8463;48.094;7.970;2023-05-01T18:54:20;14.00;51.60
2409;DHT22;8463;48.094;7.970;2023-05-01T18:56:50;14.00;49.90
2409;DHT22;8463;48.094;7.970;2023-05-01T18:59:22;13.90;52.20
2409;DHT22;8463;48.094;7.970;2023-05-01T19:01:57;14.00;52.30
2409;DHT22;8463;48.094;7.970;2023-05-01T19:04:23;14.00;46.70
2409;DHT22;8463;48.094;7.970;2023-05-01T19:06:48;13.90;46.60
2409;DHT22;8463;48.094;7.970;2023-05-01T19:09:14;13.90;46.60
2409;DHT22;8463;48.094;7.970;2023-05-01T19:11:40;14.00;46.70
2409;DHT22;8463;48.094;7.970;2023-05-01T19:14:05;14.00;46.70
2409;DHT22;8463;48.094;7.970;2023-05-01T19:16:31;14.10;45.50
2409;DHT22;8463;48.094;7.970;2023-05-01T19:18:56;13.90;44.20
2409;DHT22;8463;48.094;7.970;2023-05-01T19:21:22;13.80;45.00
2409;DHT22;8463;48.094;7.970;2023-05-01T19:23:48;13.70;46.40
2409;DHT22;8463;48.094;7.970;2023-05-01T19:26:14;13.80;47.20
2409;DHT22;8463;48.094;7.970;2023-05-01T19:28:40;13.70;44.80
2409;DHT22;8463;48.094;7.970;2023-05-01T19:31:13;13.80;46.00
2409;DHT22;8463;48.094;7.970;2023-05-01T19:33:46;13.80;43.60
2409;DHT22;8463;48.094;7.970;2023-05-01T19:36:13;13.60;45.60
2409;DHT22;8463;48.094;7.970;2023-05-01T19:38:38;13.60;47.80
2409;DHT22;8463;48.094;7.970;2023-05-01T19:41:06;13.50;52.90
2409;DHT22;8463;48.094;7.970;2023-05-01T19:43:32;13.60;55.00
2409;DHT22;8463;48.094;7.970;2023-05-01T19:46:00;13.60;56.90
2409;DHT22;8463;48.094;7.970;2023-05-01T19:48:27;13.70;58.70
2409;DHT22;8463;48.094;7.970;2023-05-01T19:50:53;13.80;60.10
2409;DHT22;8463;48.094;7.970;2023-05-01T19:53:19;13.80;59.30
2409;DHT22;8463;48.094;7.970;2023-05-01T19:55:45;13.90;58.10
2409;DHT22;8463;48.094;7.970;2023-05-01T19:58:12;13.80;58.90
2409;DHT22;8463;48.094;7.970;2023-05-01T20:00:39;13.80;58.40
2409;DHT22;8463;48.094;7.970;2023-05-01T20:03:05;13.80;57.20
2409;DHT22;8463;48.094;7.970;2023-05-01T20:05:34;13.70;58.10
2409;DHT22;8463;48.094;7.970;2023-05-01T20:08:01;13.70;58.90
2409;DHT22;8463;48.094;7.970;2023-05-01T20:10:27;13.80;59.40
2409;DHT22;8463;48.094;7.970;2023-05-01T20:12:58;13.80;59.40
2409;DHT22;8463;48.094;7.970;2023-05-01T20:15:24;13.80;58.90
2409;DHT22;8463;48.094;7.970;2023-05-01T20:17:50;13.80;57.60
2409;DHT22;8463;48.094;7.970;2023-05-01T20:20:16;13.60;58.60
2409;DHT22;8463;48.094;7.970;2023-05-01T20:22:50;13.60;60.00
2409;DHT22;8463;48.094;7.970;2023-05-01T20:25:16;13.60;59.60
2409;DHT22;8463;48.094;7.970;2023-05-01T20:27:42;13.50;60.30
2409;DHT22;8463;48.094;7.970;2023-05-01T20:30:08;13.50;62.00
2409;DHT22;8463;48.094;7.970;2023-05-01T20:32:43;13.40;60.20
2409;DHT22;8463;48.094;7.970;2023-05-01T20:35:09;13.20;56.50
2409;DHT22;8463;48.094;7.970;2023-05-01T20:37:35;13.20;58.60
2409;DHT22;8463;48.094;7.970;2023-05-01T20:40:01;13.20;58.30
2409;DHT22;8463;48.094;7.970;2023-05-01T20:42:30;13.30;58.40
2409;DHT22;8463;48.094;7.970;2023-05-01T20:44:56;13.30;59.00
2409;DHT22;8463;48.094;7.970;2023-05-01T20:47:22;13.30;59.10
2409;DHT22;8463;48.094;7.970;2023-05-01T20:49:47;13.40;59.40
2409;DHT22;8463;48.094;7.970;2023-05-01T20:52:13;13.50;59.50
2409;DHT22;8463;48.094;7.970;2023-05-01T20:54:39;13.50;59.50
2409;DHT22;8463;48.094;7.970;2023-05-01T20:57:04;13.60;59.80
2409;DHT22;8463;48.094;7.970;2023-05-01T20:59:33;13.60;59.80
2409;DHT22;8463;48.094;7.970;2023-05-01T21:02:02;13.70;59.70
2409;DHT22;8463;48.094;7.970;2023-05-01T21:04:33;13.70;58.40
2409;DHT22;8463;48.094;7.970;2023-05-01T21:06:58;13.60;57.30
2409;DHT22;8463;48.094;7.970;2023-05-01T21:09:24;13.60;56.60
2409;DHT22;8463;48.094;7.970;2023-05-01T21:11:50;13.50;57.00
2409;DHT22;8463;48.094;7.970;2023-05-01T21:14:15;13.30;59.70
2409;DHT22;8463;48.094;7.970;2023-05-01T21:16:41;13.20;61.60
2409;DHT22;8463;48.094;7.970;2023-05-01T21:19:09;13.00;62.60
2409;DHT22;8463;48.094;7.970;2023-05-01T21:21:35;13.20;66.40
2409;DHT22;8463;48.094;7.970;2023-05-01T21:24:01;13.30;63.90
2409;DHT22;8463;48.094;7.970;2023-05-01T21:26:27;13.30;63.20
2409;DHT22;8463;48.094;7.970;2023-05-01T21:28:57;13.30;62.20
2409;DHT22;8463;48.094;7.970;2023-05-01T21:31:27;13.40;62.40
2409;DHT22;8463;48.094;7.970;2023-05-01T21:34:01;13.30;61.10
2409;DHT22;8463;48.094;7.970;2023-05-01T21:36:27;13.30;60.90
2409;DHT22;8463;48.094;7.970;2023-05-01T21:38:56;13.20;61.00
2409;DHT22;8463;48.094;7.970;2023-05-01T21:41:23;13.20;61.40
2409;DHT22;8463;48.094;7.970;2023-05-01T21:43:49;13.00;60.70
2409;DHT22;8463;48.094;7.970;2023-05-01T21:46:17;12.70;62.70
2409;DHT22;8463;48.094;7.970;2023-05-01T21:48:48;12.40;63.50
2409;DHT22;8463;48.094;7.970;2023-05-01T21:51:14;12.30;65.80
2409;DHT22;8463;48.094;7.970;2023-05-01T21:53:40;12.40;66.20
2409;DHT22;8463;48.094;7.970;2023-05-01T21:56:08;12.50;64.30
2409;DHT22;8463;48.094;7.970;2023-05-01T21:58:34;12.40;65.50
2409;DHT22;8463;48.094;7.970;2023-05-01T22:01:06;12.50;64.60
2409;DHT22;8463;48.094;7.970;2023-05-01T22:03:39;12.30;66.00
2409;DHT22;8463;48.094;7.970;2023-05-01T22:06:05;12.50;66.30
2409;DHT22;8463;48.094;7.970;2023-05-01T22:08:31;12.60;66.10
2409;DHT22;8463;48.094;7.970;2023-05-01T22:10:59;12.70;65.60
2409;DHT22;8463;48.094;7.970;2023-05-01T22:13:27;12.70;65.50
2409;DHT22;8463;48.094;7.970;2023-05-01T22:15:58;12.70;65.70
2409;DHT22;8463;48.094;7.970;2023-05-01T22:18:24;12.80;65.00
2409;DHT22;8463;48.094;7.970;2023-05-01T22:20:49;12.80;62.80
2409;DHT22;8463;48.094;7.970;2023-05-01T22:23:15;12.50;61.80
2409;DHT22;8463;48.094;7.970;2023-05-01T22:25:41;12.30;64.90
2409;DHT22;8463;48.094;7.970;2023-05-01T22:28:06;12.30;65.30
2409;DHT22;8463;48.094;7.970;2023-05-01T22:30:33;12.30;64.90
2409;DHT22;8463;48.094;7.970;2023-05-01T22:33:05;12.40;64.60
2409;DHT22;8463;48.094;7.970;2023-05-01T22:35:31;12.40;62.40
2409;DHT22;8463;48.094;7.970;2023-05-01T22:37:56;12.30;64.70
2409;DHT22;8463;48.094;7.970;2023-05-01T22:40:22;12.30;65.20
2409;DHT22;8463;48.094;7.970;2023-05-01T22:42:48;12.40;65.40
2409;DHT22;8463;48.094;7.970;2023-05-01T22:45:14;12.40;65.00
2409;DHT22;8463;48.094;7.970;2023-05-01T22:47:39;12.30;64.40
2409;DHT22;8463;48.094;7.970;2023-05-01T22:50:05;12.30;64.30
2409;DHT22;8463;48.094;7.970;2023-05-01T22:52:31;12.30;63.70
2409;DHT22;8463;48.094;7.970;2023-05-01T22:54:57;12.40;64.10
2409;DHT22;8463;48.094;7.970;2023-05-01T22:57:25;12.40;64.50
2409;DHT22;8463;48.094;7.970;2023-05-01T22:59:52;12.50;64.60
2409;DHT22;8463;48.094;7.970;2023-05-01T23:02:17;12.50;63.90
2409;DHT22;8463;48.094;7.970;2023-05-01T23:04:44;12.40;63.20
2409;DHT22;8463;48.094;7.970;2023-05-01T23:07:12;12.40;63.80
2409;DHT22;8463;48.094;7.970;2023-05-01T23:09:38;12.40;63.50